createdAt,value
2019-04-27T00:00:44.732Z,65.50
2019-04-27T00:03:35.028Z,65.67
2019-04-27T00:06:08.691Z,65.79
2019-04-27T00:08:39.600Z,65.65
2019-04-27T00:11:13.653Z,65.30
2019-04-27T00:13:43.951Z,65.24
2019-04-27T00:16:17.799Z,65.17
2019-04-27T00:18:57.835Z,64.98
2019-04-27T00:21:27.324Z,65.02
2019-04-27T00:23:56.441Z,64.82
2019-04-27T00:26:25.556Z,64.82
2019-04-27T00:28:54.679Z,64.76
2019-04-27T00:31:23.862Z,64.68
2019-04-27T00:33:53.582Z,64.61
2019-04-27T00:36:26.406Z,64.48
2019-04-27T00:38:57.109Z,64.30
2019-04-27T00:41:26.216Z,64.33
2019-04-27T00:43:55.348Z,64.35
2019-04-27T00:46:24.455Z,64.58
2019-04-27T00:48:53.573Z,64.32
2019-04-27T00:51:23.252Z,64.32
2019-04-27T00:53:53.557Z,64.51
2019-04-27T00:56:33.998Z,64.36
2019-04-27T00:59:07.816Z,64.38
2019-04-27T01:01:38.583Z,64.18
2019-04-27T01:04:09.351Z,64.38
2019-04-27T01:06:38.467Z,64.46
2019-04-27T01:09:09.462Z,64.46
2019-04-27T01:11:38.568Z,64.35
2019-04-27T01:14:07.681Z,64.32
2019-04-27T01:16:36.808Z,64.38
2019-04-27T01:19:05.955Z,64.32
2019-04-27T01:21:35.046Z,64.59
2019-04-27T01:24:04.189Z,64.39
2019-04-27T01:26:51.085Z,64.33
2019-04-27T01:29:21.856Z,64.50
2019-04-27T01:31:50.965Z,64.21
2019-04-27T01:34:20.092Z,64.47
2019-04-27T01:36:49.368Z,64.53
2019-04-27T01:39:18.936Z,64.43
2019-04-27T01:41:49.061Z,64.57
2019-04-27T01:44:19.415Z,64.39
2019-04-27T01:46:48.800Z,64.15
2019-04-27T01:49:19.385Z,64.24
2019-04-27T01:51:49.232Z,64.16
2019-04-27T01:54:19.428Z,64.50
2019-04-27T01:56:49.277Z,64.26
2019-04-27T01:59:19.763Z,64.21
2019-04-27T02:01:59.194Z,64.04
2019-04-27T02:04:46.547Z,63.91
2019-04-27T02:07:15.724Z,64.01
2019-04-27T02:09:44.836Z,63.86
2019-04-27T02:12:14.030Z,64.01
2019-04-27T02:14:43.146Z,64.00
2019-04-27T02:17:12.263Z,64.02
2019-04-27T02:19:41.389Z,63.93
2019-04-27T02:22:10.503Z,64.27
2019-04-27T02:24:39.616Z,64.24
2019-04-27T02:27:09.067Z,64.20
2019-04-27T02:29:40.055Z,64.22
2019-04-27T02:32:13.499Z,64.24
2019-04-27T02:35:02.871Z,64.38
2019-04-27T02:37:31.983Z,64.38
2019-04-27T02:40:01.091Z,64.56
2019-04-27T02:42:31.852Z,64.48
2019-04-27T02:45:00.970Z,64.41
2019-04-27T02:47:30.074Z,64.57
2019-04-27T02:50:00.680Z,64.47
2019-04-27T02:52:31.526Z,64.46
2019-04-27T02:55:00.644Z,64.51
2019-04-27T02:57:30.378Z,64.66
2019-04-27T02:59:59.992Z,64.56
2019-04-27T03:02:34.165Z,64.57
2019-04-27T03:05:03.508Z,64.43
2019-04-27T03:07:32.614Z,64.42
2019-04-27T03:10:02.723Z,64.37
2019-04-27T03:12:33.674Z,64.48
2019-04-27T03:15:07.180Z,64.37
2019-04-27T03:17:49.292Z,64.37
2019-04-27T03:20:40.123Z,64.48
2019-04-27T03:23:10.673Z,64.29
2019-04-27T03:25:53.937Z,64.35
2019-04-27T03:28:23.043Z,64.39
2019-04-27T03:30:52.844Z,64.49
2019-04-27T03:33:22.803Z,64.49
2019-04-27T03:35:52.962Z,64.81
2019-04-27T03:38:22.366Z,64.79
2019-04-27T03:40:53.052Z,64.68
2019-04-27T03:43:23.815Z,64.72
2019-04-27T03:45:52.998Z,64.71
2019-04-27T03:48:22.523Z,64.71
2019-04-27T03:51:05.556Z,64.93
2019-04-27T03:54:00.171Z,64.98
2019-04-27T03:59:42.888Z,65.68
2019-04-27T04:02:19.867Z,65.57
2019-04-27T04:04:54.147Z,65.72
2019-04-27T04:10:24.434Z,65.83
2019-04-27T04:13:01.317Z,65.64
2019-04-27T04:15:40.234Z,65.66
2019-04-27T04:18:21.142Z,65.80
2019-04-27T04:23:42.251Z,66.01
2019-04-27T04:26:11.542Z,66.01
2019-04-27T04:28:52.070Z,65.94
2019-04-27T04:31:17.806Z,65.72
2019-04-27T04:34:15.031Z,65.85
2019-04-27T04:36:50.437Z,65.91
2019-04-27T04:39:19.764Z,65.79
2019-04-27T04:42:05.847Z,65.83
2019-04-27T04:44:40.440Z,66.21
2019-04-27T04:47:13.914Z,66.32
2019-04-27T04:49:43.095Z,66.14
2019-04-27T04:52:12.226Z,66.39
2019-04-27T04:54:49.563Z,66.25
2019-04-27T04:57:22.073Z,66.92
2019-04-27T05:00:10.422Z,66.67
2019-04-27T05:02:59.719Z,66.90
2019-04-27T05:05:31.669Z,67.14
2019-04-27T05:08:26.718Z,67.41
2019-04-27T05:10:43.289Z,67.59
2019-04-27T05:13:25.953Z,67.17
2019-04-27T05:15:55.340Z,67.18
2019-04-27T05:18:42.833Z,67.28
2019-04-27T05:21:34.001Z,67.29
2019-04-27T05:24:14.490Z,67.44
2019-04-27T05:26:55.258Z,67.68
2019-04-27T05:29:24.352Z,67.48
2019-04-27T05:32:02.290Z,67.62
2019-04-27T05:34:35.272Z,67.47
2019-04-27T05:37:28.090Z,67.52
2019-04-27T05:39:55.389Z,67.51
2019-04-27T05:42:32.722Z,67.53
2019-04-27T05:45:21.398Z,67.64
2019-04-27T05:47:59.260Z,67.58
2019-04-27T05:50:39.969Z,67.77
2019-04-27T05:53:05.857Z,67.49
2019-04-27T05:55:39.255Z,67.79
2019-04-27T05:58:10.537Z,67.82
2019-04-27T06:00:49.635Z,67.80
2019-04-27T06:03:41.203Z,67.60
2019-04-27T06:06:19.758Z,67.84
2019-04-27T06:08:50.774Z,68.03
2019-04-27T06:11:20.125Z,67.83
2019-04-27T06:13:50.172Z,68.17
2019-04-27T06:16:25.250Z,68.22
2019-04-27T06:19:06.229Z,68.42
2019-04-27T06:21:35.792Z,68.58
2019-04-27T06:24:14.184Z,68.69
2019-04-27T06:26:43.409Z,68.58
2019-04-27T06:29:22.051Z,68.61
2019-04-27T06:31:55.637Z,68.39
2019-04-27T06:34:25.294Z,68.41
2019-04-27T06:36:59.928Z,68.64
2019-04-27T06:39:32.940Z,68.77
2019-04-27T06:42:18.474Z,68.67
2019-04-27T06:44:42.084Z,68.53
2019-04-27T06:47:13.151Z,68.59
2019-04-27T06:49:49.624Z,68.41
2019-04-27T06:52:21.630Z,68.29
2019-04-27T06:54:53.461Z,68.36
2019-04-27T06:57:22.630Z,68.35
2019-04-27T06:59:52.124Z,68.44
2019-04-27T07:02:22.007Z,68.17
2019-04-27T07:04:59.219Z,68.21
2019-04-27T07:07:29.459Z,68.58
2019-04-27T07:10:01.075Z,68.75
2019-04-27T07:12:40.687Z,68.74
2019-04-27T07:15:08.861Z,68.73
2019-04-27T07:17:38.946Z,68.83
2019-04-27T07:20:09.127Z,68.53
2019-04-27T07:22:41.639Z,68.58
2019-04-27T07:25:11.168Z,68.89
2019-04-27T07:27:50.105Z,69.28
2019-04-27T07:30:25.920Z,69.06
2019-04-27T07:32:55.023Z,69.23
2019-04-27T07:35:25.211Z,69.15
2019-04-27T07:37:54.672Z,69.33
2019-04-27T07:40:28.904Z,69.72
2019-04-27T07:43:02.642Z,70.15
2019-04-27T07:45:39.688Z,70.15
2019-04-27T07:48:09.250Z,70.17
2019-04-27T07:50:39.080Z,70.76
2019-04-27T07:53:08.709Z,70.31
2019-04-27T07:55:40.107Z,70.53
2019-04-27T07:58:09.310Z,70.84
2019-04-27T08:00:39.505Z,70.79
2019-04-27T08:03:10.013Z,70.97
2019-04-27T08:05:39.373Z,70.67
2019-04-27T08:08:08.988Z,70.93
2019-04-27T08:10:39.945Z,71.41
2019-04-27T08:13:09.583Z,71.86
2019-04-27T08:15:39.610Z,71.22
2019-04-27T08:18:09.989Z,71.19
2019-04-27T08:20:39.201Z,70.64
2019-04-27T08:23:09.636Z,70.42
2019-04-27T08:25:39.298Z,70.73
2019-04-27T08:28:25.360Z,70.84
2019-04-27T08:31:12.476Z,70.92
2019-04-27T08:33:41.610Z,70.62
2019-04-27T08:36:10.748Z,71.04
2019-04-27T08:38:39.902Z,71.08
2019-04-27T08:41:09.105Z,70.86
2019-04-27T08:43:39.068Z,70.85
2019-04-27T08:46:10.001Z,70.58
2019-04-27T08:48:39.452Z,70.67
2019-04-27T08:51:09.591Z,70.67
2019-04-27T08:53:39.774Z,70.41
2019-04-27T08:56:09.370Z,70.44
2019-04-27T08:58:38.733Z,70.57
2019-04-27T09:01:10.056Z,70.70
2019-04-27T09:03:40.179Z,70.51
2019-04-27T09:06:15.229Z,70.67
2019-04-27T09:08:49.611Z,70.64
2019-04-27T09:11:18.647Z,70.53
2019-04-27T09:14:06.477Z,70.43
2019-04-27T09:16:39.043Z,70.54
2019-04-27T09:19:16.441Z,70.76
2019-04-27T09:22:12.752Z,70.69
2019-04-27T09:24:34.527Z,70.69
2019-04-27T09:27:04.216Z,70.56
2019-04-27T09:29:33.342Z,70.71
2019-04-27T09:32:02.817Z,70.71
2019-04-27T09:34:31.954Z,70.95
2019-04-27T09:37:01.188Z,70.75
2019-04-27T09:39:30.314Z,70.64
2019-04-27T09:41:59.460Z,70.52
2019-04-27T09:44:28.705Z,70.46
2019-04-27T09:46:57.873Z,70.49
2019-04-27T09:49:27.145Z,70.52
2019-04-27T09:51:56.590Z,70.35
2019-04-27T09:54:27.202Z,70.24
2019-04-27T09:56:56.487Z,70.11
2019-04-27T09:59:26.545Z,69.97
2019-04-27T10:01:57.603Z,69.94
2019-04-27T10:04:26.838Z,69.87
2019-04-27T10:06:58.337Z,69.61
2019-04-27T10:09:29.601Z,69.59
2019-04-27T10:11:58.387Z,69.51
2019-04-27T10:14:27.512Z,69.38
2019-04-27T10:16:56.644Z,69.31
2019-04-27T10:19:31.171Z,69.19
2019-04-27T10:21:56.711Z,69.23
2019-04-27T10:24:25.891Z,69.19
2019-04-27T10:26:54.993Z,69.40
2019-04-27T10:29:24.124Z,69.47
2019-04-27T10:31:53.343Z,69.42
2019-04-27T10:34:22.511Z,69.35
2019-04-27T10:36:51.666Z,69.37
2019-04-27T10:39:20.806Z,69.38
2019-04-27T10:41:49.922Z,69.33
2019-04-27T10:44:19.041Z,69.15
2019-04-27T10:46:48.223Z,69.21
2019-04-27T10:49:17.335Z,69.09
2019-04-27T10:51:46.470Z,68.99
2019-04-27T10:54:15.596Z,69.09
2019-04-27T10:56:46.059Z,69.28
2019-04-27T10:59:16.453Z,69.14
2019-04-27T11:01:46.012Z,69.32
2019-04-27T11:04:32.069Z,69.31
2019-04-27T11:07:02.849Z,69.43
2019-04-27T11:09:31.956Z,69.28
2019-04-27T11:12:01.140Z,69.18
2019-04-27T11:14:30.285Z,69.12
2019-04-27T11:16:59.398Z,69.21
2019-04-27T11:19:28.576Z,69.25
2019-04-27T11:21:57.699Z,68.86
2019-04-27T11:24:26.818Z,68.56
2019-04-27T11:26:56.732Z,68.25
2019-04-27T11:29:27.612Z,67.77
2019-04-27T11:31:56.892Z,67.62
2019-04-27T11:34:27.785Z,67.11
2019-04-27T11:36:58.705Z,66.38
2019-04-27T11:39:27.945Z,66.24
2019-04-27T11:41:57.111Z,66.24
2019-04-27T11:44:26.266Z,65.86
2019-04-27T11:46:57.008Z,66.39
2019-04-27T11:49:26.143Z,66.22
2019-04-27T11:51:56.690Z,66.17
2019-04-27T11:54:27.562Z,65.80
2019-04-27T11:56:56.865Z,65.72
2019-04-27T11:59:27.112Z,65.45
2019-04-27T12:01:56.375Z,64.86
2019-04-27T12:04:26.282Z,64.93
2019-04-27T12:06:56.518Z,64.62
2019-04-27T12:09:25.743Z,64.37
2019-04-27T12:11:57.435Z,64.29
2019-04-27T12:14:25.796Z,65.17
2019-04-27T12:16:56.200Z,64.79
2019-04-27T12:19:26.834Z,64.55
2019-04-27T12:21:56.571Z,64.55
2019-04-27T12:24:26.720Z,64.93
2019-04-27T12:27:00.399Z,65.17
2019-04-27T12:29:47.409Z,65.42
2019-04-27T12:32:17.109Z,65.58
2019-04-27T12:34:46.496Z,64.83
2019-04-27T12:37:15.826Z,65.38
2019-04-27T12:39:45.064Z,64.68
2019-04-27T12:42:15.994Z,64.18
2019-04-27T12:44:45.170Z,65.05
2019-04-27T12:47:16.221Z,64.49
2019-04-27T12:49:45.911Z,64.04
2019-04-27T12:52:15.943Z,63.18
2019-04-27T12:54:55.667Z,62.44
2019-04-27T12:57:26.485Z,62.31
2019-04-27T13:00:00.065Z,60.43
2019-04-27T13:02:35.650Z,60.27
2019-04-27T13:05:06.743Z,59.00
2019-04-27T13:07:35.873Z,59.11
2019-04-27T13:10:08.289Z,59.77
2019-04-27T13:12:37.403Z,59.25
2019-04-27T13:15:07.856Z,59.49
2019-04-27T13:17:37.202Z,59.09
2019-04-27T13:20:07.290Z,58.37
2019-04-27T13:22:37.244Z,57.83
2019-04-27T13:25:08.292Z,57.73
2019-04-27T13:27:37.694Z,58.99
2019-04-27T13:30:08.671Z,59.09
2019-04-27T13:32:37.806Z,59.16
2019-04-27T13:35:08.202Z,59.23
2019-04-27T13:40:19.876Z,60.55
2019-04-27T13:43:07.696Z,60.81
2019-04-27T13:45:46.488Z,60.08
2019-04-27T13:48:23.287Z,58.72
2019-04-27T13:50:54.055Z,58.56
2019-04-27T13:53:23.157Z,59.03
2019-04-27T13:55:52.283Z,59.80
2019-04-27T13:58:21.400Z,60.02
2019-04-27T14:00:50.585Z,59.97
2019-04-27T14:03:21.076Z,60.26
2019-04-27T14:05:50.309Z,60.47
2019-04-27T14:08:22.655Z,60.43
2019-04-27T14:10:51.909Z,60.68
2019-04-27T14:13:21.134Z,60.44
2019-04-27T14:15:51.780Z,59.79
2019-04-27T14:18:20.936Z,59.54
2019-04-27T14:20:50.090Z,59.61
2019-04-27T14:23:23.644Z,59.90
2019-04-27T14:25:52.832Z,59.89
2019-04-27T14:28:21.979Z,60.40
2019-04-27T14:30:52.848Z,61.02
2019-04-27T14:33:22.443Z,61.08
2019-04-27T14:35:54.052Z,61.05
2019-04-27T14:38:23.226Z,61.22
2019-04-27T14:40:52.368Z,61.64
2019-04-27T14:43:21.484Z,61.80
2019-04-27T14:45:52.251Z,61.66
2019-04-27T14:48:21.718Z,61.41
2019-04-27T14:50:51.086Z,60.97
2019-04-27T14:53:20.524Z,60.23
2019-04-27T14:55:49.879Z,60.80
2019-04-27T14:58:19.413Z,60.52
2019-04-27T15:00:50.953Z,60.59
2019-04-27T15:03:20.097Z,60.77
2019-04-27T15:05:49.666Z,60.74
2019-04-27T15:08:20.550Z,60.81
2019-04-27T15:10:49.782Z,60.41
2019-04-27T15:13:21.928Z,60.69
2019-04-27T15:15:51.307Z,61.13
2019-04-27T15:18:20.688Z,61.03
2019-04-27T15:20:51.607Z,61.27
2019-04-27T15:23:21.039Z,61.48
2019-04-27T15:25:50.211Z,61.28
2019-04-27T15:28:28.552Z,61.11
2019-04-27T15:31:01.022Z,61.17
2019-04-27T15:33:51.442Z,61.01
2019-04-27T15:36:23.532Z,60.87
2019-04-27T15:39:03.496Z,60.70
2019-04-27T15:41:49.268Z,60.84
2019-04-27T15:44:18.823Z,60.75
2019-04-27T15:46:50.712Z,60.66
2019-04-27T15:49:23.828Z,60.50
2019-04-27T15:51:56.222Z,60.67
2019-04-27T15:54:31.965Z,60.56
2019-04-27T15:56:59.479Z,60.17
2019-04-27T15:59:30.992Z,60.23
2019-04-27T16:01:59.591Z,60.21
2019-04-27T16:04:28.705Z,60.05
2019-04-27T16:06:58.276Z,60.07
2019-04-27T16:09:28.888Z,59.78
2019-04-27T16:12:09.542Z,59.34
2019-04-27T16:14:30.686Z,59.12
2019-04-27T16:17:03.115Z,59.43
2019-04-27T16:19:30.699Z,59.43
2019-04-27T16:21:59.795Z,59.80
2019-04-27T16:24:29.171Z,59.68
2019-04-27T16:26:59.048Z,60.14
2019-04-27T16:29:31.530Z,60.18
2019-04-27T16:32:02.725Z,60.37
2019-04-27T16:34:32.957Z,60.55
2019-04-27T16:37:01.251Z,60.60
2019-04-27T16:39:30.378Z,60.85
2019-04-27T16:42:01.285Z,60.79
2019-04-27T16:44:30.394Z,61.11
2019-04-27T16:46:59.619Z,61.06
2019-04-27T16:49:29.054Z,60.93
2019-04-27T16:51:59.078Z,60.16
2019-04-27T16:54:28.406Z,60.25
2019-04-27T16:57:03.195Z,60.28
2019-04-27T16:59:42.707Z,60.62
2019-04-27T17:01:58.856Z,60.50
2019-04-27T17:04:29.084Z,60.55
2019-04-27T17:06:59.161Z,60.82
2019-04-27T17:09:29.212Z,60.59
2019-04-27T17:11:59.254Z,60.68
2019-04-27T17:14:34.925Z,60.48
2019-04-27T17:17:10.641Z,60.60
2019-04-27T17:19:43.715Z,60.75
2019-04-27T17:22:14.575Z,60.76
2019-04-27T17:24:46.862Z,60.52
2019-04-27T17:27:16.286Z,60.75
2019-04-27T17:29:50.047Z,60.73
2019-04-27T17:32:25.498Z,60.84
2019-04-27T17:35:02.092Z,60.83
2019-04-27T17:37:29.955Z,60.95
2019-04-27T17:40:00.693Z,60.95
2019-04-27T17:42:30.590Z,60.93
2019-04-27T17:45:00.559Z,60.64
2019-04-27T17:47:30.172Z,60.76
2019-04-27T17:49:59.428Z,60.69
2019-04-27T17:52:28.558Z,60.69
2019-04-27T17:54:58.922Z,60.78
2019-04-27T17:57:30.514Z,60.81
2019-04-27T18:00:03.165Z,60.75
2019-04-27T18:02:33.708Z,60.67
2019-04-27T18:05:01.879Z,60.86
2019-04-27T18:07:34.983Z,61.04
2019-04-27T18:10:02.089Z,61.09
2019-04-27T18:12:31.368Z,61.24
2019-04-27T18:15:05.426Z,61.48
2019-04-27T18:17:40.964Z,61.48
2019-04-27T18:20:12.209Z,61.48
2019-04-27T18:22:43.038Z,61.54
2019-04-27T18:25:12.638Z,61.44
2019-04-27T18:27:49.969Z,61.46
2019-04-27T18:30:23.931Z,61.47
2019-04-27T18:32:53.178Z,61.53
2019-04-27T18:35:26.229Z,61.62
2019-04-27T18:37:58.407Z,61.67
2019-04-27T18:40:32.281Z,61.74
2019-04-27T18:43:06.645Z,61.80
2019-04-27T18:45:33.523Z,61.83
2019-04-27T18:48:13.456Z,61.89
2019-04-27T18:50:43.460Z,61.84
2019-04-27T18:53:16.452Z,61.83
2019-04-27T18:55:50.083Z,61.77
2019-04-27T18:58:19.586Z,61.76
2019-04-27T19:00:50.528Z,61.87
2019-04-27T19:03:19.878Z,61.81
2019-04-27T19:05:54.845Z,61.77
2019-04-27T19:08:25.630Z,61.87
2019-04-27T19:10:55.502Z,61.88
2019-04-27T19:13:24.148Z,61.87
2019-04-27T19:15:59.888Z,62.03
2019-04-27T19:18:50.228Z,61.84
2019-04-27T19:21:20.238Z,61.86
2019-04-27T19:23:58.433Z,61.98
2019-04-27T19:29:20.268Z,62.33
2019-04-27T19:31:51.046Z,62.41
2019-04-27T19:34:20.152Z,62.38
2019-04-27T19:36:49.268Z,62.48
2019-04-27T19:39:18.393Z,62.49
2019-04-27T19:41:59.997Z,62.56
2019-04-27T19:44:18.905Z,62.65
2019-04-27T19:46:49.092Z,62.64
2019-04-27T19:49:19.265Z,62.67
2019-04-27T19:51:48.500Z,62.60
2019-04-27T19:54:17.723Z,62.82
2019-04-27T19:56:46.826Z,62.86
2019-04-27T19:59:20.225Z,62.92
2019-04-27T20:01:51.219Z,63.07
2019-04-27T20:04:21.960Z,63.21
2019-04-27T20:06:51.071Z,63.42
2019-04-27T20:09:27.825Z,63.56
2019-04-27T20:11:56.937Z,63.69
2019-04-27T20:14:26.040Z,63.54
2019-04-27T20:16:55.173Z,63.52
2019-04-27T20:19:24.275Z,63.49
2019-04-27T20:21:53.382Z,63.35
2019-04-27T20:24:22.886Z,63.40
2019-04-27T20:26:51.987Z,63.36
2019-04-27T20:29:21.784Z,63.46
2019-04-27T20:31:51.210Z,63.40
2019-04-27T20:34:22.834Z,63.41
2019-04-27T20:36:52.842Z,63.46
2019-04-27T20:39:24.870Z,63.54
2019-04-27T20:41:55.649Z,63.51
2019-04-27T20:44:24.698Z,63.50
2019-04-27T20:46:53.833Z,63.62
2019-04-27T20:49:24.585Z,63.59
2019-04-27T20:51:58.178Z,63.62
2019-04-27T20:54:30.609Z,63.74
2019-04-27T20:57:01.414Z,63.58
2019-04-27T20:59:32.838Z,63.58
2019-04-27T21:02:23.817Z,63.61
2019-04-27T21:04:54.625Z,63.58
2019-04-27T21:07:41.880Z,63.54
2019-04-27T21:10:14.018Z,63.49
2019-04-27T21:12:43.166Z,63.41
2019-04-27T21:15:12.961Z,63.51
2019-04-27T21:17:42.550Z,63.46
2019-04-27T21:20:13.265Z,63.51
2019-04-27T21:22:42.444Z,63.51
2019-04-27T21:25:12.034Z,63.60
2019-04-27T21:27:41.247Z,63.65
2019-04-27T21:30:11.427Z,63.91
2019-04-27T21:32:40.687Z,63.84
2019-04-27T21:35:11.032Z,63.91
2019-04-27T21:37:40.929Z,63.74
2019-04-27T21:40:22.253Z,63.65
2019-04-27T21:42:52.186Z,63.52
2019-04-27T21:45:21.816Z,63.53
2019-04-27T21:47:51.919Z,63.64
2019-04-27T21:50:23.291Z,63.67
2019-04-27T21:52:53.666Z,63.82
2019-04-27T21:55:24.432Z,63.86
2019-04-27T21:57:53.545Z,63.89
2019-04-27T22:00:38.371Z,64.12
2019-04-27T22:03:09.187Z,64.11
2019-04-27T22:05:38.665Z,64.01
2019-04-27T22:08:07.787Z,64.55
2019-04-27T22:10:36.963Z,64.61
2019-04-27T22:13:06.081Z,64.42
2019-04-27T22:15:35.203Z,64.42
2019-04-27T22:18:04.309Z,64.39
2019-04-27T22:20:33.990Z,64.20
2019-04-27T22:23:22.982Z,64.07
2019-04-27T22:25:54.434Z,64.08
2019-04-27T22:28:22.825Z,63.86
2019-04-27T22:30:51.947Z,63.88
2019-04-27T22:33:21.496Z,63.91
2019-04-27T22:35:51.779Z,64.08
2019-04-27T22:38:20.945Z,64.07
2019-04-27T22:40:51.695Z,64.23
2019-04-27T22:43:28.002Z,64.17
2019-04-27T22:45:57.979Z,64.24
2019-04-27T22:48:27.091Z,64.37
2019-04-27T22:50:56.209Z,64.35
2019-04-27T22:53:25.319Z,64.38
2019-04-27T22:56:13.575Z,64.37
2019-04-27T22:58:57.069Z,64.45
2019-04-27T23:01:31.860Z,64.50
2019-04-27T23:04:05.686Z,64.76
2019-04-27T23:06:34.796Z,64.78
2019-04-27T23:09:04.886Z,64.83
2019-04-27T23:11:33.994Z,64.82
2019-04-27T23:14:03.108Z,64.93
2019-04-27T23:16:33.869Z,64.92
2019-04-27T23:19:02.979Z,65.00
2019-04-27T23:21:32.085Z,64.90
2019-04-27T23:24:01.838Z,64.82
2019-04-27T23:26:31.248Z,64.65
2019-04-27T23:29:12.316Z,64.38
2019-04-27T23:31:35.455Z,64.20
2019-04-27T23:34:04.559Z,64.21
2019-04-27T23:36:33.669Z,64.23
2019-04-27T23:39:02.787Z,64.25
2019-04-27T23:41:31.896Z,64.27
2019-04-27T23:44:01.007Z,64.25
2019-04-27T23:46:30.141Z,64.41
2019-04-27T23:48:59.245Z,64.45
2019-04-27T23:51:41.616Z,64.54
2019-04-27T23:54:11.566Z,64.69
2019-04-27T23:56:42.050Z,64.89
2019-04-27T23:59:23.779Z,65.50
